Metar Cercanos

 

LEPA - Palma De Mallorc, Spain
Distance from station: ONO 38km
Actualización: Thu, 06-Oct-2022 4:00pm CEST
Few Clouds
Few Clouds
 Viento del ENE
Viento: ENE 15 km/h
Temperatura: 24°C
Rocío: 20°C
Humedad: 78%
Barómetro: 1024 hPa
Clouds: Few Clouds
Visibility: 10 km
Cloud details: Few Clouds 183 m
Few Clouds 610 m
2022/10/06 14:00 LEPA 061400Z 07008KT 040V100 9999 FEW006 FEW020CB 24/20 Q1024 NOSIG
LEMH - Mahon/Menorca Is, Spain
Distance from station: ENE 105km
Actualización: Thu, 06-Oct-2022 4:00pm CEST
Few Clouds
Few Clouds
 Viento del E
Viento: E 19 km/h
Temperatura: 23°C
Rocío: 18°C
Humedad: 74%
Barómetro: 1025 hPa
Clouds: Few Clouds
Visibility: 10 km
Cloud details: Few Clouds 762 m
2022/10/06 14:00 LEMH 061400Z 09010KT 9999 FEW025 23/18 Q1025
 
LEIB - Ibiza/Es Codola, Spain
Distance from station: OSO 165km
Actualización: Thu, 06-Oct-2022 4:00pm CEST
Few Clouds
Few Clouds
 Viento del ENE
Viento: ENE 15 km/h
Temperatura: 25°C
Rocío: 18°C
Humedad: 65%
Barómetro: 1023 hPa
Clouds: Few Clouds
Visibility: 10 km
Cloud details: Few Clouds 610 m
Few Clouds 762 m
2022/10/06 14:00 LEIB 061400Z 07008KT 040V100 9999 FEW020 FEW025TCU 25/18 Q1023 NOSIG
LEBL - Barcelona Airpor, Spain
Distance from station: NNO 225km
Actualización: Thu, 06-Oct-2022 4:00pm CEST
Few Clouds
Few Clouds
 Viento del E
Viento: E 24 km/h
Temperatura: 24°C
Rocío: 16°C
Humedad: 61%
Barómetro: 1026 hPa
Clouds: Few Clouds
Visibility: 10 km
Cloud details: Few Clouds 610 m
2022/10/06 14:00 LEBL 061400Z 09013KT 060V120 9999 FEW020 24/16 Q1026 NOSIG
 
LEVC - Valencia (civ/Mi, Spain
Distance from station: NO 188km
Actualización: Thu, 06-Oct-2022 4:00pm CEST
Parcialmente nuboso
Parcialmente nuboso
 Viento del NE
Viento: NE 30 km/h
Temperatura: 25°C
Rocío: 15°C
Humedad: 54%
Barómetro: 1025 hPa
Clouds: Parcialmente nuboso
Visibility: 10 km
Cloud details: Few Clouds 610 m
Parcialmente nuboso 914 m
2022/10/06 14:00 LEVC 061400Z 05016KT 020V080 9999 FEW020 SCT030 25/15 Q1025 NOSIG
LEGE - Gerona/Costa Bra, Spain
Distance from station: N 276km
Actualización: Thu, 06-Oct-2022 4:00pm CEST
Parcialmente nuboso
Parcialmente nuboso
 Viento del E
Viento: E 17 km/h
Temperatura: 24°C
Rocío: 14°C
Humedad: 54%
Barómetro: 1026 hPa
Clouds: Parcialmente nuboso
Visibility: 10 km
Cloud details: Parcialmente nuboso 1219 m
2022/10/06 14:00 LEGE 061400Z 08009KT 050V120 9999 SCT040 24/14 Q1026
 
LEAL - Alicante/El Alte, Spain
Distance from station: OSO 344km
Actualización: Thu, 06-Oct-2022 4:00pm CEST
Few Clouds
Few Clouds
 Viento del E
Viento: E 28 km/h
Temperatura: 25°C
Rocío: 19°C
Humedad: 69%
Barómetro: 1023 hPa
Clouds: Few Clouds
Visibility: 10 km
Cloud details: Few Clouds 640 m
2022/10/06 14:00 LEAL 061400Z 09015KT 9999 FEW021 25/19 Q1023 NOSIG
LEAM - Almeria Airport, Spain
Distance from station: SSO 56km
Actualización: Thu, 06-Oct-2022 4:00pm CEST
Despejado
Despejado
 Viento del E
Viento: E 33 km/h
Temperatura: 26°C
Rocío: 17°C
Humedad: 58%
Barómetro: 1021 hPa
Resumen: Despejado
Visibility: greater than 10 km
2022/10/06 14:00 LEAM 061400Z 08018KT CAVOK 26/17 Q1021
 
LEZG - Zaragoza (mil/Ci, Spain
Distance from station: NO 431km
Actualización: Thu, 06-Oct-2022 4:00pm CEST
Despejado
Despejado
 Viento del NNO
Viento: NNO 6 km/h
Temperatura: 24°C
Rocío: 13°C
Humedad: 50%
Barómetro: 1026 hPa
Resumen: Despejado
Visibility: greater than 10 km
2022/10/06 14:00 LEZG 061400Z 34003KT CAVOK 24/13 Q1026
LEMD - Madrid/Barajas, Spain
Distance from station: ONO 234km
Actualización: Thu, 06-Oct-2022 4:00pm CEST
Few Clouds
Few Clouds
 Viento del SSO
Viento: SSO 9 km/h
Temperatura: 26°C
Rocío: 11°C
Humedad: 39%
Barómetro: 1024 hPa
Clouds: Few Clouds
Visibility: 10 km
Cloud details: Few Clouds 1829 m
2022/10/06 14:00 LEMD 061400Z 20005KT 110V280 9999 FEW060 26/11 Q1024 NOSIG
 
LEGR - Granada Airport, Spain
Distance from station: OSO 62km
Actualización: Thu, 06-Oct-2022 4:00pm CEST
Parcialmente nuboso
Parcialmente nuboso
 Viento del varies
Viento: varies 2 km/h
Temperatura: 28°C
Rocío: 10°C
Humedad: 32%
Barómetro: 1022 hPa
Clouds: Parcialmente nuboso
Visibility: 10 km
Cloud details: Parcialmente nuboso 1829 m
2022/10/06 14:00 LEGR 061400Z VRB01KT 9999 SCT060 28/10 Q1022
LEMG - Malaga (civ/Mil), Spain
Distance from station: OSO 227km
Actualización: Thu, 06-Oct-2022 4:00pm CEST
Few Clouds
Few Clouds
 Viento del SE
Viento: SE 15 km/h
Temperatura: 24°C
Rocío: 17°C
Humedad: 65%
Barómetro: 1022 hPa
Clouds: Few Clouds
Visibility: 10 km
Cloud details: Few Clouds 853 m
2022/10/06 14:00 LEMG 061400Z 13008KT 100V160 9999 FEW028 24/17 Q1022 NOSIG
 
LEZL - Sevilla (civ/Mil, Spain
Distance from station: S 318km
Actualización: Thu, 06-Oct-2022 4:00pm CEST
Despejado
Despejado
 Viento del E
Viento: E 20 km/h, Racha: 39 km/h
Temperatura: 31°C
Rocío: 13°C
Humedad: 33%
Barómetro: 1019 hPa
Resumen: Despejado
Visibility: greater than 10 km
2022/10/06 14:00 LEZL 061400Z 08011G21KT 050V140 CAVOK 31/13 Q1019 NOSIG
LEVT - Vitoria, Spain
Distance from station: NO 226km
Actualización: Thu, 06-Oct-2022 4:00pm CEST
Few Clouds
Few Clouds
 Viento del NE
Viento: NE 15 km/h
Temperatura: 22°C
Rocío: 12°C
Humedad: 53%
Barómetro: 1027 hPa
Clouds: Few Clouds
Visibility: 10 km
Cloud details: Few Clouds 975 m
2022/10/06 14:00 LEVT 061400Z 05008KT 360V090 9999 FEW032 22/12 Q1027
 
LEBB - Bilbao/Sondica, Spain
Distance from station: NNO 235km
Actualización: Thu, 06-Oct-2022 4:00pm CEST
Muy nuboso
Muy nuboso
 Viento del NNE
Viento: NNE 13 km/h
Temperatura: 22°C
Rocío: 16°C
Humedad: 69%
Barómetro: 1027 hPa
Clouds: Muy nuboso
Visibility: 10 km
Cloud details: Parcialmente nuboso 792 m
Muy nuboso 1341 m
2022/10/06 14:00 LEBB 061400Z 03007KT 350V080 9999 SCT026 BKN044 22/16 Q1027 NOSIG
LESO - San Sebastian/Fu, Spain
Distance from station: N 231km
Actualización: Thu, 06-Oct-2022 4:00pm CEST
Muy nuboso
Muy nuboso
 Viento del N
Viento: N 9 km/h
Temperatura: 21°C
Rocío: 18°C
Humedad: 83%
Barómetro: 1028 hPa
Clouds: Muy nuboso
Visibility: 10 km
Cloud details: Muy nuboso 1158 m
2022/10/06 14:00 LESO 061400Z 01005KT 310V050 9999 BKN038 21/18 Q1028
 
LEVD - Valladolid(Mil/C, Spain
Distance from station: ONO 239km
Actualización: Thu, 06-Oct-2022 4:00pm CEST
Despejado
Despejado
 Viento del E
Viento: E 9 km/h
Temperatura: 24°C
Rocío: 8°C
Humedad: 36%
Barómetro: 1025 hPa
Resumen: Despejado
Visibility: greater than 10 km
2022/10/06 14:00 LEVD 061400Z 08005KT 030V140 CAVOK 24/08 Q1025
LESA - Salamanca (civ/M, Spain
Distance from station: ONO 349km
Actualización: Thu, 06-Oct-2022 4:00pm CEST
Few Clouds
Few Clouds
 Viento del ONO
Viento: ONO 6 km/h
Temperatura: 27°C
Rocío: 7°C
Humedad: 28%
Barómetro: 1025 hPa
Clouds: Few Clouds
Visibility: 10 km
Cloud details: Few Clouds 1219 m
2022/10/06 14:00 LESA 061400Z 29003KT 220V020 9999 FEW040 27/07 Q1025
 
LEXJ - Santander/Paraya, Spain
Distance from station: NNO 247km
Actualización: Thu, 06-Oct-2022 4:00pm CEST
Muy nuboso
Muy nuboso
 Viento del ENE
Viento: ENE 9 km/h
Temperatura: 20°C
Rocío: 18°C
Humedad: 88%
Barómetro: 1027 hPa
Clouds: Muy nuboso
Visibility: 10 km
Cloud details: Parcialmente nuboso 427 m
Muy nuboso 1372 m
2022/10/06 14:00 LEXJ 061400Z 06005KT 360V120 9999 SCT014 BKN045 20/18 Q1027
LEAS - Asturias/Aviles, Spain
Distance from station: NO 214km
Actualización: Thu, 06-Oct-2022 4:00pm CEST
Muy nuboso
Muy nuboso
 Viento del E
Viento: E 19 km/h
Temperatura: 18°C
Rocío: 17°C
Humedad: 94%
Barómetro: 1027 hPa
Clouds: Muy nuboso
Visibility: 9 km
Cloud details: Muy nuboso 213 m
Muy nuboso 366 m
2022/10/06 14:00 LEAS 061400Z 08010KT 040V140 9000 BKN007 BKN012 18/17 Q1027 NOSIG
 
LECO - La Coruna/Alvedr, Spain
Distance from station: ONO 222km
Actualización: Thu, 06-Oct-2022 4:00pm CEST
Few Clouds
Few Clouds
 Viento del NE
Viento: NE 17 km/h
Temperatura: 24°C
Rocío: 17°C
Humedad: 65%
Barómetro: 1024 hPa
Clouds: Few Clouds
Visibility: 10 km
Cloud details: Few Clouds 1067 m
2022/10/06 14:00 LECO 061400Z 05009KT 350V080 9999 FEW035 24/17 Q1024 NOSIG
LEVX - Vigo/Peinador, Spain
Distance from station: O 214km
Actualización: Thu, 06-Oct-2022 4:00pm CEST
Despejado
Despejado
 Viento del varies
Viento: varies 6 km/h
Temperatura: 27°C
Indice Calor: 28°C
Rocío: 17°C
Humedad: 54%
Barómetro: 1023 hPa
Resumen: Despejado
Visibility: greater than 10 km
2022/10/06 14:00 LEVX 061400Z VRB03KT CAVOK 27/17 Q1023 NOSIG